Time;durP1;ratioP1;P1;durP2;ratioP2;P2;SDS_P1;SDS_P2;PMS_P1;PMS_P2;Temp;Humidity;BMP_temperature;BMP_pressure;BME280_temperature;BME280_humidity;BME280_pressure;Samples;Min_cycle;Max_cycle;Signal;HPM_P1;HPM_P2
2022/01/16 00:00:05;;;;;;;45.22;25.38;;;4.60;76.20;;;;;;4860035;29;20051;-75
2022/01/16 00:05:03;;;;;;;49.45;26.73;;;4.60;76.30;;;;;;4877378;29;20082;-76
2022/01/16 00:07:28;;;;;;;53.35;27.92;;;4.60;76.40;;;;;;4877621;29;20741;-76
2022/01/16 00:09:54;;;;;;;48.00;26.08;;;4.60;76.70;;;;;;4877734;29;20052;-75
2022/01/16 00:12:23;;;;;;;49.58;26.65;;;4.60;76.60;;;;;;4877491;29;20041;-75
2022/01/16 00:14:48;;;;;;;51.33;27.23;;;4.60;76.60;;;;;;4875808;29;20084;-76
2022/01/16 00:17:14;;;;;;;54.00;28.98;;;4.60;76.60;;;;;;4877771;29;20132;-76
2022/01/16 00:19:40;;;;;;;56.53;29.20;;;4.60;76.60;;;;;;4877659;29;20466;-75
2022/01/16 00:22:12;;;;;;;54.90;28.75;;;4.60;76.70;;;;;;4876986;29;20072;-76
2022/01/16 00:24:38;;;;;;;58.28;29.92;;;4.60;76.70;;;;;;4877571;29;20110;-75
2022/01/16 00:27:04;;;;;;;57.97;29.83;;;4.60;76.70;;;;;;4878443;29;20032;-76
2022/01/16 00:29:31;;;;;;;56.25;30.35;;;4.60;76.80;;;;;;4878778;29;20053;-75
2022/01/16 00:31:57;;;;;;;57.33;31.83;;;4.60;76.60;;;;;;4878239;29;20052;-74
2022/01/16 00:34:22;;;;;;;58.65;30.83;;;4.60;76.60;;;;;;4872941;29;20042;-74
2022/01/16 00:36:50;;;;;;;58.60;31.52;;;4.60;76.70;;;;;;4860503;29;20395;-75
2022/01/16 00:39:15;;;;;;;55.85;30.00;;;4.60;76.70;;;;;;4878776;29;20044;-74
2022/01/16 00:41:42;;;;;;;53.55;28.30;;;4.60;76.60;;;;;;4865472;29;20531;-74
2022/01/16 00:44:08;;;;;;;58.70;30.27;;;4.60;76.60;;;;;;4881284;29;20065;-74
2022/01/16 00:46:33;;;;;;;57.38;30.58;;;4.60;76.60;;;;;;4863952;29;20057;-75
2022/01/16 00:48:59;;;;;;;62.10;31.75;;;4.60;76.60;;;;;;4864651;29;20037;-74
2022/01/16 00:51:25;;;;;;;56.20;30.90;;;4.60;76.50;;;;;;4881337;29;20093;-74
2022/01/16 00:53:53;;;;;;;55.70;29.02;;;4.60;76.50;;;;;;4881061;29;20523;-74
2022/01/16 00:56:18;;;;;;;56.28;29.10;;;4.60;76.60;;;;;;4880778;29;20045;-74
2022/01/16 00:58:44;;;;;;;66.03;32.17;;;4.60;76.60;;;;;;4881399;29;20068;-75
2022/01/16 01:01:10;;;;;;;55.83;30.58;;;4.60;76.70;;;;;;4864337;29;20037;-75
2022/01/16 01:03:36;;;;;;;59.05;31.50;;;4.60;76.50;;;;;;4881020;29;20049;-75
2022/01/16 01:06:03;;;;;;;55.28;30.00;;;4.60;76.60;;;;;;4880866;29;20045;-74
2022/01/16 01:08:30;;;;;;;58.00;30.17;;;4.60;76.60;;;;;;4863070;29;20048;-75
2022/01/16 01:10:57;;;;;;;54.42;29.15;;;4.60;76.60;;;;;;4881217;29;20588;-75
2022/01/16 01:13:30;;;;;;;56.88;28.40;;;4.60;76.50;;;;;;4880501;29;20512;-75
2022/01/16 01:16:04;;;;;;;58.90;30.10;;;4.60;76.50;;;;;;4879054;29;20120;-74
2022/01/16 01:18:32;;;;;;;57.83;30.10;;;4.60;76.60;;;;;;4879163;29;20265;-75
2022/01/16 01:21:01;;;;;;;58.28;29.08;;;4.60;76.50;;;;;;4863974;29;20052;-74
2022/01/16 01:23:27;;;;;;;58.47;30.85;;;4.60;76.30;;;;;;4880591;29;20060;-74
2022/01/16 01:25:53;;;;;;;61.13;30.15;;;4.60;76.30;;;;;;4880327;29;20424;-75
2022/01/16 01:28:18;;;;;;;51.15;27.85;;;4.50;76.30;;;;;;4863881;29;20064;-75
2022/01/16 01:30:45;;;;;;;53.45;27.83;;;4.50;76.30;;;;;;4880510;29;20549;-75
2022/01/16 01:33:15;;;;;;;53.55;27.45;;;4.50;76.30;;;;;;4880611;29;20477;-75
2022/01/16 01:35:42;;;;;;;63.13;29.90;;;4.50;76.30;;;;;;4880919;29;20421;-75
2022/01/16 01:38:09;;;;;;;58.17;30.70;;;4.50;76.50;;;;;;4862604;29;20067;-75
2022/01/16 01:40:37;;;;;;;58.85;29.55;;;4.50;76.50;;;;;;4880844;29;20396;-75
2022/01/16 01:51:01;;;;;;;59.35;29.17;;;4.50;76.50;;;;;;4880531;29;20056;-75
2022/01/16 01:51:32;;;;;;;63.53;29.95;;;4.50;76.60;;;;;;4877423;29;20052;-75
2022/01/16 01:53:58;;;;;;;60.42;28.67;;;4.50;76.50;;;;;;4863445;29;20048;-76
2022/01/16 01:56:25;;;;;;;58.40;28.17;;;4.50;76.60;;;;;;4879958;29;20049;-75
2022/01/16 01:58:53;;;;;;;59.03;28.02;;;4.50;76.60;;;;;;4863315;29;20140;-75
2022/01/16 02:01:20;;;;;;;69.90;30.58;;;4.50;76.70;;;;;;4879575;29;20048;-75
2022/01/16 02:03:48;;;;;;;59.58;28.98;;;4.50;76.80;;;;;;4863137;29;20063;-75
2022/01/16 02:06:19;;;;;;;66.65;29.08;;;4.60;76.70;;;;;;4862713;29;20101;-75
2022/01/16 02:08:52;;;;;;;57.35;27.85;;;4.50;76.70;;;;;;4880103;29;20140;-75
2022/01/16 02:11:19;;;;;;;67.25;31.27;;;4.50;76.70;;;;;;4863015;29;20044;-75
2022/01/16 02:35:44;;;;;;;62.80;29.85;;;4.30;76.80;;;;;;4879253;29;20061;-75
2022/01/16 02:38:11;;;;;;;65.82;30.08;;;4.30;76.90;;;;;;4878376;29;20067;-75
2022/01/16 02:40:41;;;;;;;65.82;31.83;;;4.30;77.00;;;;;;4862660;29;20049;-75
2022/01/16 02:43:07;;;;;;;59.78;28.13;;;4.30;77.10;;;;;;4862931;29;20093;-75
2022/01/16 02:45:36;;;;;;;62.10;31.35;;;4.30;77.10;;;;;;4879076;29;20053;-75
2022/01/16 02:48:06;;;;;;;64.93;29.38;;;4.40;77.40;;;;;;4878569;29;20047;-76
2022/01/16 02:50:34;;;;;;;69.82;31.67;;;4.40;77.50;;;;;;4879096;29;20097;-75
2022/01/16 02:53:03;;;;;;;66.90;31.17;;;4.40;77.50;;;;;;4879013;29;20037;-75
2022/01/16 02:55:29;;;;;;;66.00;29.55;;;4.40;77.40;;;;;;4879225;29;20066;-75
2022/01/16 02:57:55;;;;;;;64.45;28.20;;;4.40;77.40;;;;;;4879016;29;20056;-75
2022/01/16 03:00:22;;;;;;;66.32;30.23;;;4.40;77.40;;;;;;4862400;29;20480;-75
2022/01/16 03:02:49;;;;;;;71.60;32.50;;;4.40;77.40;;;;;;4878859;29;20048;-75
2022/01/16 03:05:15;;;;;;;67.95;30.88;;;4.40;77.50;;;;;;4862680;29;20045;-76
2022/01/16 03:07:42;;;;;;;66.65;32.00;;;4.40;77.40;;;;;;4878752;29;20076;-75
2022/01/16 03:12:40;;;;;;;62.47;28.25;;;4.40;77.60;;;;;;4861901;29;20515;-75
2022/01/16 03:15:07;;;;;;;71.30;32.80;;;4.40;77.50;;;;;;4878206;29;20044;-74
2022/01/16 03:21:52;;;;;;;68.15;32.72;;;4.40;77.60;;;;;;4878774;29;20072;-75
2022/01/16 03:23:05;;;;;;;65.80;29.90;;;4.40;77.60;;;;;;4878340;29;20809;-75
2022/01/16 03:25:32;;;;;;;72.45;32.78;;;4.40;77.60;;;;;;4878307;29;20351;-76
2022/01/16 03:27:57;;;;;;;69.10;32.28;;;4.40;77.60;;;;;;4862438;29;20045;-75
2022/01/16 03:30:23;;;;;;;61.78;29.40;;;4.50;77.60;;;;;;4861004;29;20049;-75
2022/01/16 03:32:48;;;;;;;68.53;32.20;;;4.40;77.60;;;;;;4878473;29;20045;-75
2022/01/16 03:35:14;;;;;;;65.70;31.38;;;4.50;77.70;;;;;;4878461;29;20421;-75
2022/01/16 03:37:40;;;;;;;70.25;31.85;;;4.40;77.70;;;;;;4878543;29;20049;-75
2022/01/16 03:40:10;;;;;;;63.53;29.35;;;4.50;77.80;;;;;;4877761;29;20056;-75
2022/01/16 03:42:39;;;;;;;73.18;32.42;;;4.50;77.70;;;;;;4861952;29;20100;-75
2022/01/16 03:45:07;;;;;;;65.32;31.33;;;4.50;77.80;;;;;;4861796;29;20136;-76
2022/01/16 03:47:33;;;;;;;72.13;32.70;;;4.50;77.80;;;;;;4878525;29;20131;-76
2022/01/16 03:49:59;;;;;;;64.32;29.70;;;4.50;77.80;;;;;;4877743;29;20067;-75
2022/01/16 03:52:25;;;;;;;65.47;28.00;;;4.50;77.80;;;;;;4878705;29;20033;-76
2022/01/16 03:54:50;;;;;;;65.25;31.23;;;4.50;77.80;;;;;;4878569;29;20048;-76
2022/01/16 03:57:16;;;;;;;76.07;31.73;;;4.50;77.90;;;;;;4878820;29;20045;-76
2022/01/16 03:59:41;;;;;;;72.40;30.65;;;4.50;77.90;;;;;;4878996;29;20123;-75
2022/01/16 04:02:07;;;;;;;65.72;29.15;;;4.50;78.00;;;;;;4878456;29;20045;-75
2022/01/16 04:04:33;;;;;;;70.03;30.90;;;4.50;78.00;;;;;;4861880;29;20040;-75
2022/01/16 04:07:01;;;;;;;71.18;32.47;;;4.60;78.10;;;;;;4862009;29;20116;-75
2022/01/16 04:09:28;;;;;;;75.97;32.70;;;4.50;78.10;;;;;;4879377;29;20048;-75
2022/01/16 04:11:56;;;;;;;65.53;30.80;;;4.60;78.10;;;;;;4861678;29;20048;-76
2022/01/16 04:17:14;;;;;;;69.95;30.05;;;4.60;78.20;;;;;;4861435;29;20473;-76
2022/01/16 04:19:39;;;;;;;65.03;30.75;;;4.60;78.20;;;;;;4878072;29;20045;-75
2022/01/16 04:22:05;;;;;;;68.22;32.17;;;4.60;78.20;;;;;;4859978;29;20151;-75
2022/01/16 04:24:32;;;;;;;68.57;29.58;;;4.60;78.20;;;;;;4877002;29;20049;-75
2022/01/16 04:26:58;;;;;;;77.57;32.75;;;4.60;78.20;;;;;;4877936;29;20097;-75
2022/01/16 04:29:23;;;;;;;71.50;32.33;;;4.60;78.30;;;;;;4877362;29;20045;-76
2022/01/16 04:31:49;;;;;;;73.78;34.38;;;4.60;78.30;;;;;;4877519;29;20057;-76
2022/01/16 04:34:15;;;;;;;74.53;31.92;;;4.60;78.30;;;;;;4860246;29;20060;-75
2022/01/16 04:36:40;;;;;;;85.75;36.65;;;4.60;78.30;;;;;;4876280;29;20527;-75
2022/01/16 04:39:14;;;;;;;71.70;30.45;;;4.60;78.30;;;;;;4877780;29;20052;-75
2022/01/16 04:44:26;;;;;;;75.07;33.55;;;4.60;78.30;;;;;;4877109;29;20045;-75
2022/01/16 04:46:52;;;;;;;78.43;34.20;;;4.60;78.40;;;;;;4877124;29;20497;-75
2022/01/16 04:49:18;;;;;;;73.80;31.63;;;4.60;78.50;;;;;;4877270;29;20045;-75
2022/01/16 04:51:44;;;;;;;80.40;35.78;;;4.60;78.50;;;;;;4860786;29;20059;-75
2022/01/16 04:54:10;;;;;;;74.85;33.25;;;4.60;78.50;;;;;;4860296;29;20053;-75
2022/01/16 04:56:36;;;;;;;85.65;35.45;;;4.60;78.50;;;;;;4860299;29;20064;-74
2022/01/16 04:59:01;;;;;;;73.10;33.47;;;4.70;78.50;;;;;;4877883;29;20085;-76
2022/01/16 05:01:27;;;;;;;77.25;33.17;;;4.60;78.40;;;;;;4877772;29;20449;-74
2022/01/16 05:03:53;;;;;;;74.60;32.47;;;4.70;78.50;;;;;;4862331;29;20047;-75
2022/01/16 05:06:19;;;;;;;82.78;34.38;;;4.70;78.50;;;;;;4879154;29;20137;-75
2022/01/16 05:08:45;;;;;;;74.00;33.47;;;4.70;78.60;;;;;;4861022;29;20052;-75
2022/01/16 05:11:13;;;;;;;79.82;34.63;;;4.70;78.60;;;;;;4860754;29;20041;-76
2022/01/16 05:18:50;;;;;;;77.25;33.35;;;4.70;78.70;;;;;;4860099;29;20068;-75
2022/01/16 05:21:17;;;;;;;77.30;34.30;;;4.70;78.60;;;;;;4860745;29;20059;-75
2022/01/16 05:23:43;;;;;;;81.85;34.42;;;4.70;78.70;;;;;;4859872;29;20057;-75
2022/01/16 05:26:11;;;;;;;79.97;35.15;;;4.70;78.70;;;;;;4860397;29;20148;-75
2022/01/16 05:28:36;;;;;;;81.40;36.13;;;4.70;78.70;;;;;;4880953;29;20552;-75
2022/01/16 05:31:03;;;;;;;75.45;33.97;;;4.80;78.80;;;;;;4878916;29;20157;-75
2022/01/16 05:33:29;;;;;;;78.93;34.45;;;4.80;78.80;;;;;;4880469;29;20037;-75
2022/01/16 05:35:55;;;;;;;70.20;32.85;;;4.80;78.80;;;;;;4880538;29;20052;-75
2022/01/16 05:38:20;;;;;;;80.40;36.10;;;4.80;78.80;;;;;;4880574;29;20048;-75
2022/01/16 05:40:46;;;;;;;76.93;33.17;;;4.80;78.90;;;;;;4878867;29;20469;-75
2022/01/16 05:43:12;;;;;;;76.88;34.85;;;4.80;78.80;;;;;;4863379;29;20032;-75
2022/01/16 05:45:38;;;;;;;81.82;36.25;;;4.80;78.80;;;;;;4863438;29;20481;-75
2022/01/16 05:48:04;;;;;;;79.95;34.42;;;4.80;78.90;;;;;;4863877;29;20089;-75
2022/01/16 05:50:31;;;;;;;73.10;33.22;;;4.90;79.00;;;;;;4878289;29;20060;-75
2022/01/16 05:53:01;;;;;;;72.57;34.17;;;4.80;78.90;;;;;;4880241;29;20048;-75
2022/01/16 05:55:30;;;;;;;80.53;33.83;;;4.90;79.00;;;;;;4879767;29;20048;-75
2022/01/16 05:57:56;;;;;;;83.20;34.30;;;4.90;79.00;;;;;;4880356;29;20489;-75
2022/01/16 06:00:21;;;;;;;83.40;35.70;;;4.90;79.00;;;;;;4879377;29;20073;-74
2022/01/16 06:02:47;;;;;;;81.07;36.50;;;4.90;79.00;;;;;;4863159;29;20061;-74
2022/01/16 06:05:13;;;;;;;78.32;34.28;;;4.90;79.00;;;;;;4880035;29;20045;-75
2022/01/16 06:07:45;;;;;;;83.47;34.95;;;4.90;79.00;;;;;;4880013;29;20085;-75
2022/01/16 06:10:12;;;;;;;84.28;35.88;;;4.90;79.00;;;;;;4880145;29;20124;-75
2022/01/16 06:12:37;;;;;;;90.25;35.85;;;4.90;79.10;;;;;;4880029;29;20045;-75
2022/01/16 06:15:05;;;;;;;88.97;37.53;;;4.90;79.20;;;;;;4867487;29;20053;-75
2022/01/16 06:17:31;;;;;;;81.65;36.55;;;5.00;79.20;;;;;;4847955;29;20053;-76
2022/01/16 06:19:57;;;;;;;83.75;36.58;;;5.00;79.30;;;;;;4863851;29;20067;-74
2022/01/16 06:22:24;;;;;;;82.88;35.67;;;5.00;79.30;;;;;;4879246;29;20088;-75
2022/01/16 06:24:49;;;;;;;88.70;37.85;;;5.00;79.30;;;;;;4879579;29;20081;-75
2022/01/16 06:27:15;;;;;;;84.72;38.58;;;5.00;79.30;;;;;;4862446;29;20171;-75
2022/01/16 06:29:41;;;;;;;84.10;35.78;;;5.00;79.30;;;;;;4862579;29;20053;-76
2022/01/16 06:32:06;;;;;;;81.90;36.75;;;5.10;79.40;;;;;;4863015;29;20085;-76
2022/01/16 06:34:32;;;;;;;85.25;39.30;;;5.10;79.40;;;;;;4879658;29;20148;-75
2022/01/16 06:36:58;;;;;;;83.63;38.25;;;5.10;79.40;;;;;;4879335;29;20136;-76
2022/01/16 06:39:24;;;;;;;83.78;36.25;;;5.10;79.40;;;;;;4862520;29;20124;-75
2022/01/16 06:41:50;;;;;;;85.80;36.45;;;5.10;79.40;;;;;;4879560;29;20408;-76
2022/01/16 06:44:16;;;;;;;82.43;38.05;;;5.10;79.40;;;;;;4879533;29;20133;-76
2022/01/16 06:46:42;;;;;;;79.82;34.65;;;5.10;79.40;;;;;;4862593;29;20140;-76
2022/01/16 06:49:10;;;;;;;77.88;35.17;;;5.20;79.40;;;;;;4862421;29;20076;-75
2022/01/16 06:51:36;;;;;;;86.65;37.78;;;5.20;79.50;;;;;;4879289;29;20053;-76
2022/01/16 06:54:03;;;;;;;88.30;37.13;;;5.20;79.50;;;;;;4861815;29;20132;-76
2022/01/16 06:56:29;;;;;;;86.00;37.95;;;5.20;79.40;;;;;;4861749;29;20064;-75
2022/01/16 06:58:56;;;;;;;78.03;37.30;;;5.20;79.40;;;;;;4862316;29;20120;-76
2022/01/16 07:01:22;;;;;;;75.75;34.20;;;5.20;79.40;;;;;;4879342;29;20140;-75
2022/01/16 07:03:48;;;;;;;80.70;36.20;;;5.20;79.40;;;;;;4862460;29;20521;-76
2022/01/16 07:06:15;;;;;;;83.32;38.88;;;5.20;79.40;;;;;;4861428;29;20497;-75
2022/01/16 07:08:40;;;;;;;85.53;37.47;;;5.30;79.50;;;;;;4879047;29;20139;-76
2022/01/16 07:11:06;;;;;;;78.80;37.10;;;5.30;79.50;;;;;;4878829;29;20519;-75
2022/01/16 07:13:32;;;;;;;86.20;38.35;;;5.30;79.50;;;;;;4879511;29;20045;-75
2022/01/16 07:15:57;;;;;;;81.45;38.10;;;5.20;79.40;;;;;;4877214;29;20092;-75
2022/01/16 07:18:23;;;;;;;87.47;40.03;;;5.30;79.40;;;;;;4875155;29;20439;-76
2022/01/16 07:20:50;;;;;;;74.80;34.80;;;5.30;79.40;;;;;;4862002;29;20073;-76
2022/01/16 07:23:17;;;;;;;85.68;38.05;;;5.30;79.50;;;;;;4878682;29;20049;-76
2022/01/16 07:25:43;;;;;;;84.05;36.20;;;5.40;79.60;;;;;;4861961;29;20057;-75
2022/01/16 07:28:09;;;;;;;88.70;39.17;;;5.30;79.50;;;;;;4878104;29;20045;-75
2022/01/16 07:30:36;;;;;;;84.13;37.30;;;5.30;79.60;;;;;;4876553;29;20069;-76
2022/01/16 07:33:02;;;;;;;84.40;37.58;;;5.30;79.60;;;;;;4861701;29;20061;-76
2022/01/16 07:35:28;;;;;;;83.43;37.25;;;5.40;79.60;;;;;;4878219;29;20481;-76
2022/01/16 07:37:54;;;;;;;82.93;35.90;;;5.30;79.60;;;;;;4860573;29;20041;-76
2022/01/16 07:40:22;;;;;;;81.53;37.83;;;5.30;79.60;;;;;;4861644;29;20132;-77
2022/01/16 07:42:48;;;;;;;73.55;34.58;;;5.40;79.70;;;;;;4861105;29;20053;-76
2022/01/16 07:45:14;;;;;;;79.80;36.53;;;5.40;79.70;;;;;;4859462;29;20133;-76
2022/01/16 07:47:39;;;;;;;77.20;37.03;;;5.40;79.70;;;;;;4878096;29;20177;-77
2022/01/16 07:50:07;;;;;;;90.00;38.38;;;5.40;79.70;;;;;;4859721;29;20052;-77
2022/01/16 07:52:33;;;;;;;79.90;36.80;;;5.40;79.80;;;;;;4860617;29;20068;-77
2022/01/16 07:54:58;;;;;;;76.70;36.10;;;5.40;79.70;;;;;;4859220;29;21504;-76
2022/01/16 07:57:24;;;;;;;83.05;37.45;;;5.40;79.70;;;;;;4875660;29;20040;-76
2022/01/16 07:59:50;;;;;;;83.32;38.85;;;5.50;79.80;;;;;;4861320;29;20149;-76
2022/01/16 08:02:17;;;;;;;77.13;36.95;;;5.50;79.80;;;;;;4861196;29;20397;-76
2022/01/16 08:04:42;;;;;;;74.60;35.13;;;5.50;79.80;;;;;;4861548;29;20060;-76
2022/01/16 08:07:10;;;;;;;73.13;35.45;;;5.50;79.80;;;;;;4861294;29;20040;-77
2022/01/16 08:09:36;;;;;;;79.45;37.88;;;5.50;79.70;;;;;;4877600;29;20052;-77
2022/01/16 08:12:04;;;;;;;85.82;38.63;;;5.50;79.80;;;;;;4877520;29;20049;-75
2022/01/16 08:14:29;;;;;;;70.10;34.63;;;5.50;79.80;;;;;;4877704;29;20119;-77
2022/01/16 08:16:58;;;;;;;78.20;38.08;;;5.50;79.80;;;;;;4875057;29;20509;-75
2022/01/16 08:19:25;;;;;;;73.95;35.80;;;5.50;79.80;;;;;;4876039;29;20056;-76
2022/01/16 08:21:51;;;;;;;75.78;35.03;;;5.60;79.80;;;;;;4858936;29;20512;-77
2022/01/16 08:24:17;;;;;;;70.55;34.95;;;5.60;79.80;;;;;;4877866;29;20051;-75
2022/01/16 08:26:43;;;;;;;77.75;36.72;;;5.60;79.90;;;;;;4860974;29;20048;-78
2022/01/16 08:29:09;;;;;;;67.32;34.85;;;5.60;79.90;;;;;;4860400;29;20049;-75
2022/01/16 08:31:35;;;;;;;76.28;35.80;;;5.60;79.90;;;;;;4861500;29;20051;-77
2022/01/16 08:34:01;;;;;;;72.88;34.38;;;5.60;79.90;;;;;;4879125;29;20375;-76
2022/01/16 08:36:27;;;;;;;65.35;33.92;;;5.60;79.90;;;;;;4877080;29;20056;-76
2022/01/16 08:38:54;;;;;;;68.20;34.58;;;5.60;79.90;;;;;;4860661;29;20052;-76
2022/01/16 08:41:23;;;;;;;66.47;34.22;;;5.60;80.00;;;;;;4861081;29;20507;-76
2022/01/16 08:43:49;;;;;;;63.13;33.30;;;5.70;80.10;;;;;;4877836;29;20040;-76
2022/01/16 08:46:15;;;;;;;67.57;34.00;;;5.70;80.10;;;;;;4877223;29;20049;-76
2022/01/16 08:48:41;;;;;;;60.45;32.70;;;5.70;80.10;;;;;;4860977;29;20101;-76
2022/01/16 08:51:07;;;;;;;64.45;33.88;;;5.70;80.10;;;;;;4862010;29;20049;-77
2022/01/16 08:53:33;;;;;;;59.03;32.90;;;5.80;80.20;;;;;;4875151;29;20096;-76
2022/01/16 08:55:59;;;;;;;66.93;34.30;;;5.70;80.20;;;;;;4861501;29;20052;-77
2022/01/16 08:58:26;;;;;;;60.60;32.38;;;5.80;80.20;;;;;;4857572;29;20540;-77
2022/01/16 09:00:51;;;;;;;60.60;31.08;;;5.80;80.20;;;;;;4878726;29;20096;-77
2022/01/16 09:03:22;;;;;;;59.35;30.67;;;5.80;80.20;;;;;;4864289;29;20097;-76
2022/01/16 09:05:49;;;;;;;58.80;31.30;;;5.80;80.30;;;;;;4864574;29;20111;-76
2022/01/16 09:08:16;;;;;;;59.95;32.17;;;5.80;80.20;;;;;;4864090;29;20153;-76
2022/01/16 09:10:42;;;;;;;60.22;32.53;;;6.20;80.50;;;;;;4881109;29;20056;-77
2022/01/16 09:13:15;;;;;;;57.38;30.23;;;5.80;80.30;;;;;;4881001;29;20041;-77
2022/01/16 09:15:43;;;;;;;55.58;30.17;;;5.90;80.40;;;;;;4880340;29;20056;-77
2022/01/16 09:18:08;;;;;;;60.40;30.73;;;5.90;80.40;;;;;;4880698;29;20060;-76
2022/01/16 09:20:34;;;;;;;52.22;29.67;;;5.90;80.40;;;;;;4878590;29;20049;-76
2022/01/16 09:23:01;;;;;;;52.65;29.08;;;5.90;80.40;;;;;;4863269;29;20056;-77
2022/01/16 09:25:27;;;;;;;53.90;29.73;;;5.90;80.40;;;;;;4845317;29;20053;-77
2022/01/16 09:27:54;;;;;;;52.65;28.75;;;5.90;80.40;;;;;;4863952;29;20041;-77
2022/01/16 09:30:21;;;;;;;52.92;28.65;;;6.00;80.50;;;;;;4866410;29;20056;-77
2022/01/16 09:32:47;;;;;;;46.05;27.75;;;6.00;80.40;;;;;;4884783;29;20052;-77
2022/01/16 09:35:13;;;;;;;54.30;29.60;;;6.00;80.40;;;;;;4884755;29;20044;-77
2022/01/16 09:37:39;;;;;;;45.47;27.30;;;6.10;80.50;;;;;;4863797;29;20045;-78
2022/01/16 09:40:07;;;;;;;51.00;28.77;;;6.10;80.50;;;;;;4879907;29;20499;-77
2022/01/16 09:42:34;;;;;;;42.33;26.48;;;6.00;80.40;;;;;;4880268;29;20049;-77
2022/01/16 09:45:00;;;;;;;48.45;27.67;;;6.10;80.50;;;;;;4864725;29;20052;-77
2022/01/16 09:47:26;;;;;;;42.42;24.98;;;6.10;80.40;;;;;;4863761;29;20401;-78
2022/01/16 09:49:51;;;;;;;48.38;26.77;;;6.10;80.40;;;;;;4880817;29;20088;-77
2022/01/16 09:52:18;;;;;;;44.60;25.30;;;6.10;80.40;;;;;;4863309;29;20133;-78
2022/01/16 09:54:44;;;;;;;43.83;25.75;;;6.10;80.40;;;;;;4864634;29;20469;-76
2022/01/16 09:57:12;;;;;;;42.60;25.40;;;6.10;80.40;;;;;;4880448;29;20091;-78
2022/01/16 09:59:37;;;;;;;46.28;25.38;;;6.20;80.40;;;;;;4864239;29;20041;-77
2022/01/16 10:02:06;;;;;;;40.45;23.48;;;6.20;80.40;;;;;;4879888;29;20049;-77
2022/01/16 10:04:40;;;;;;;39.78;24.30;;;6.20;80.40;;;;;;4863704;29;20066;-77
2022/01/16 10:07:10;;;;;;;;;;;6.30;80.50;;;;;;4864623;29;20051;-77
2022/01/16 10:09:39;;;;;;;38.10;23.42;;;6.20;80.20;;;;;;4864450;29;20014;-77
2022/01/16 10:12:14;;;;;;;42.00;22.70;;;6.20;80.40;;;;;;4880544;29;20093;-77
2022/01/16 10:14:47;;;;;;;39.33;21.48;;;6.20;80.40;;;;;;4879778;29;20061;-77
2022/01/16 10:17:22;;;;;;;39.67;22.33;;;6.30;80.40;;;;;;4863866;29;20045;-76
2022/01/16 10:20:09;;;;;;;45.55;23.65;;;6.30;80.40;;;;;;4881955;29;20045;-77
2022/01/16 10:22:52;;;;;;;33.17;19.40;;;6.30;80.30;;;;;;4863694;29;20061;-77
2022/01/16 10:25:37;;;;;;;33.72;21.13;;;6.30;80.30;;;;;;4864368;29;20090;-77
2022/01/16 10:28:10;;;;;;;39.28;21.02;;;6.30;80.30;;;;;;4880724;29;20072;-77
2022/01/16 10:30:46;;;;;;;33.72;19.08;;;6.40;80.30;;;;;;4863953;29;20084;-77
2022/01/16 10:33:19;;;;;;;30.40;18.98;;;6.40;80.30;;;;;;4863572;29;20053;-77
2022/01/16 10:35:47;;;;;;;35.00;19.52;;;6.40;80.20;;;;;;4879822;29;20450;-77
2022/01/16 10:38:18;;;;;;;28.67;18.38;;;6.40;80.20;;;;;;4879553;29;20528;-77
2022/01/16 10:40:50;;;;;;;30.02;18.15;;;6.40;80.20;;;;;;4879748;29;20045;-76
2022/01/16 10:43:34;;;;;;;30.98;17.70;;;6.40;80.10;;;;;;4860891;29;20053;-77
2022/01/16 10:46:00;;;;;;;28.40;16.92;;;6.50;80.10;;;;;;4877853;29;20088;-77
2022/01/16 10:48:26;;;;;;;25.75;16.33;;;6.50;80.10;;;;;;4879041;29;20045;-77
2022/01/16 10:50:51;;;;;;;28.50;15.75;;;6.50;80.10;;;;;;4879744;29;20041;-77
2022/01/16 10:53:19;;;;;;;29.10;16.20;;;6.60;80.10;;;;;;4879211;29;20045;-76
2022/01/16 10:55:49;;;;;;;24.13;14.52;;;6.60;80.10;;;;;;4877820;29;20081;-77
2022/01/16 10:58:17;;;;;;;24.45;13.70;;;6.60;80.00;;;;;;4879343;29;20052;-77
2022/01/16 11:00:46;;;;;;;27.50;14.05;;;6.60;80.00;;;;;;4879818;29;20080;-76
2022/01/16 11:03:14;;;;;;;23.00;12.88;;;6.60;80.00;;;;;;4863272;29;20048;-77
2022/01/16 11:05:43;;;;;;;21.45;12.30;;;6.70;80.00;;;;;;4879543;29;20100;-78
2022/01/16 11:08:12;;;;;;;22.42;12.57;;;6.70;80.00;;;;;;4878786;29;20084;-77
2022/01/16 11:10:44;;;;;;;24.70;12.07;;;6.70;80.00;;;;;;4879157;29;20052;-77
2022/01/16 11:13:18;;;;;;;22.65;11.00;;;6.70;80.00;;;;;;4862080;29;20060;-78
2022/01/16 11:15:49;;;;;;;20.08;9.45;;;6.70;80.00;;;;;;4862618;29;20045;-77
2022/01/16 11:18:16;;;;;;;18.23;9.05;;;6.70;79.90;;;;;;4861772;29;20053;-77
2022/01/16 11:20:51;;;;;;;17.90;8.32;;;6.80;79.80;;;;;;4861563;29;20044;-77
2022/01/16 11:26:01;;;;;;;17.20;7.68;;;6.80;79.70;;;;;;4861192;29;20123;-76
2022/01/16 11:28:27;;;;;;;20.10;8.18;;;6.80;79.70;;;;;;4878303;29;20199;-76
2022/01/16 11:30:55;;;;;;;13.55;6.28;;;6.90;79.70;;;;;;4862202;29;20149;-77
2022/01/16 11:33:23;;;;;;;15.07;6.85;;;6.90;79.60;;;;;;4879931;29;20048;-76
2022/01/16 11:36:07;;;;;;;14.43;6.63;;;6.90;79.50;;;;;;4878801;29;20075;-77
2022/01/16 11:38:36;;;;;;;12.82;7.05;;;6.90;79.40;;;;;;4878998;29;20060;-77
2022/01/16 11:41:25;;;;;;;15.05;6.35;;;6.90;79.30;;;;;;4874374;29;20486;-76
2022/01/16 11:43:53;;;;;;;11.38;5.80;;;6.90;79.20;;;;;;4878244;29;20550;-77
2022/01/16 11:46:27;;;;;;;11.30;5.53;;;7.00;79.20;;;;;;4878274;29;20037;-77
2022/01/16 11:48:58;;;;;;;12.90;5.95;;;7.00;79.10;;;;;;4862182;29;20092;-77
2022/01/16 11:51:34;;;;;;;12.75;6.38;;;7.00;79.00;;;;;;4860854;29;20061;-78
2022/01/16 11:54:24;;;;;;;11.23;5.40;;;7.00;78.90;;;;;;4876507;29;20060;-77
2022/01/16 11:56:55;;;;;;;10.68;5.72;;;7.00;78.60;;;;;;4860705;29;20102;-77
2022/01/16 11:59:25;;;;;;;12.88;5.90;;;7.00;78.50;;;;;;4859742;29;20056;-78
2022/01/16 12:02:04;;;;;;;11.25;6.22;;;7.10;78.50;;;;;;4877678;29;20393;-77
2022/01/16 12:04:30;;;;;;;14.20;6.35;;;7.10;78.50;;;;;;4877755;29;20140;-76
2022/01/16 12:07:10;;;;;;;10.00;5.85;;;7.10;78.40;;;;;;4877781;29;20169;-77
2022/01/16 12:09:47;;;;;;;12.27;6.68;;;7.10;78.10;;;;;;4878356;29;20053;-80
2022/01/16 12:12:12;;;;;;;15.20;7.30;;;7.10;78.10;;;;;;4861336;29;20037;-80
2022/01/16 12:14:57;;;;;;;13.77;7.13;;;7.20;78.10;;;;;;4877554;29;20056;-81
2022/01/16 12:17:30;;;;;;;12.73;6.45;;;7.20;77.90;;;;;;4861100;29;20053;-81
2022/01/16 12:20:17;;;;;;;17.92;7.63;;;7.20;77.90;;;;;;4860516;29;20053;-79
2022/01/16 12:23:03;;;;;;;25.27;8.38;;;7.20;77.70;;;;;;4835128;29;20042;-79
2022/01/16 12:25:41;;;;;;;17.67;7.68;;;7.20;77.70;;;;;;4819647;29;20058;-79
2022/01/16 12:28:09;;;;;;;15.82;6.95;;;7.30;77.80;;;;;;4836510;29;20110;-81
2022/01/16 12:31:02;;;;;;;13.80;7.00;;;7.30;77.80;;;;;;4823233;29;20513;-80
2022/01/16 12:33:28;;;;;;;16.25;7.57;;;7.40;77.70;;;;;;4838272;29;20451;-80
2022/01/16 12:35:58;;;;;;;15.07;7.32;;;7.40;77.80;;;;;;4821885;29;20050;-80
2022/01/16 12:38:31;;;;;;;18.25;7.75;;;7.40;77.60;;;;;;4838998;29;20094;-81
2022/01/16 12:41:19;;;;;;;14.93;7.05;;;7.40;77.60;;;;;;4836409;29;20394;-81
2022/01/16 12:44:07;;;;;;;16.92;8.50;;;7.40;77.60;;;;;;4823734;29;20061;-80
2022/01/16 12:46:34;;;;;;;14.40;7.65;;;7.40;77.60;;;;;;4838027;29;20058;-80
2022/01/16 12:49:04;;;;;;;14.55;8.13;;;7.60;78.20;;;;;;4838312;29;20486;-80
2022/01/16 12:51:35;;;;;;;14.38;8.10;;;7.60;77.70;;;;;;4822404;29;20129;-80
2022/01/16 12:54:04;;;;;;;17.95;8.00;;;7.50;77.60;;;;;;4837799;29;20078;-79
2022/01/16 12:56:40;;;;;;;16.90;8.45;;;7.50;77.60;;;;;;4837877;29;20069;-80
2022/01/16 12:59:11;;;;;;;14.70;7.15;;;7.60;77.60;;;;;;4846449;29;20061;-80
2022/01/16 13:01:42;;;;;;;18.58;8.35;;;7.60;77.60;;;;;;4861945;29;20055;-81
2022/01/16 13:04:19;;;;;;;18.75;7.65;;;7.60;77.50;;;;;;4877080;29;20044;-80
2022/01/16 13:06:45;;;;;;;14.70;8.07;;;7.60;77.50;;;;;;4877181;29;20041;-81
2022/01/16 13:09:11;;;;;;;16.58;7.20;;;7.60;77.40;;;;;;4876682;29;20048;-82
2022/01/16 13:11:47;;;;;;;20.35;7.35;;;7.70;77.30;;;;;;4859190;29;20051;-80
2022/01/16 13:14:18;;;;;;;22.05;9.02;;;7.70;77.30;;;;;;4860463;29;20393;-82
2022/01/16 13:16:50;;;;;;;13.05;7.60;;;7.60;77.20;;;;;;4857994;29;20534;-81
2022/01/16 13:19:18;;;;;;;16.98;6.70;;;7.70;77.20;;;;;;4874802;29;20393;-81
2022/01/16 13:21:47;;;;;;;15.75;7.20;;;7.70;77.20;;;;;;4875984;29;20097;-81
2022/01/16 13:24:27;;;;;;;13.93;7.00;;;7.70;77.10;;;;;;4859869;29;20438;-82
2022/01/16 13:26:52;;;;;;;11.88;6.10;;;7.70;77.40;;;;;;4876130;29;20402;-81
2022/01/16 13:29:20;;;;;;;15.43;7.13;;;8.00;77.20;;;;;;4861473;29;20037;-81
2022/01/16 13:31:47;;;;;;;15.25;7.13;;;7.90;77.10;;;;;;4860004;29;20057;-82